createdAt,value
2018-11-26T00:01:23.160Z,0.10
2018-11-26T00:03:52.436Z,0.10
2018-11-26T00:06:27.526Z,0.10
2018-11-26T00:08:56.791Z,0.20
2018-11-26T00:11:34.541Z,0.20
2018-11-26T00:14:03.579Z,0.10
2018-11-26T00:16:32.447Z,0.20
2018-11-26T00:20:31.045Z,0.20
2018-11-26T00:24:29.475Z,0.20
2018-11-26T00:26:58.186Z,0.20
2018-11-26T00:29:28.425Z,0.20
2018-11-26T00:33:26.701Z,0.20
2018-11-26T00:35:55.918Z,0.20
2018-11-26T00:38:25.008Z,0.30
2018-11-26T00:40:54.301Z,0.30
2018-11-26T00:44:52.510Z,0.30
2018-11-26T00:47:21.388Z,0.30
2018-11-26T00:49:51.871Z,0.30
2018-11-26T00:52:20.568Z,0.30
2018-11-26T00:54:49.902Z,0.30
2018-11-26T00:57:18.880Z,0.30
2018-11-26T01:01:17.072Z,0.30
2018-11-26T01:05:15.277Z,0.30
2018-11-26T01:07:44.958Z,0.40
2018-11-26T01:10:13.907Z,0.40
2018-11-26T01:12:42.926Z,0.40
2018-11-26T01:15:12.847Z,0.40
2018-11-26T01:17:41.705Z,0.50
2018-11-26T01:20:10.883Z,0.50
2018-11-26T01:22:39.770Z,0.50
2018-11-26T01:25:08.825Z,0.50
2018-11-26T01:27:37.653Z,0.50
2018-11-26T01:30:08.388Z,0.60
2018-11-26T01:32:37.518Z,0.50
2018-11-26T01:35:07.739Z,0.50
2018-11-26T01:37:36.945Z,0.50
2018-11-26T01:40:11.362Z,0.50
2018-11-26T01:42:41.170Z,0.50
2018-11-26T01:45:11.106Z,0.60
2018-11-26T01:47:40.253Z,0.60
2018-11-26T01:50:09.517Z,0.60
2018-11-26T01:59:23.465Z,0.50
2018-11-26T02:01:53.080Z,0.50
2018-11-26T02:04:22.051Z,0.50
2018-11-26T02:06:51.410Z,0.50
2018-11-26T02:09:20.397Z,0.50
2018-11-26T02:11:50.081Z,0.50
2018-11-26T02:14:19.262Z,0.60
2018-11-26T02:16:48.177Z,0.60
2018-11-26T02:19:17.497Z,0.50
2018-11-26T02:21:46.789Z,0.50
2018-11-26T02:24:15.818Z,0.60
2018-11-26T02:26:44.870Z,0.50
2018-11-26T02:30:43.317Z,0.60
2018-11-26T02:33:14.020Z,0.50
2018-11-26T02:35:43.165Z,0.50
2018-11-26T02:38:13.219Z,0.50
2018-11-26T02:40:42.841Z,0.50
2018-11-26T02:43:11.712Z,0.50
2018-11-26T02:45:41.357Z,0.50
2018-11-26T02:48:10.785Z,0.40
2018-11-26T02:50:39.955Z,0.40
2018-11-26T02:53:09.184Z,0.40
2018-11-26T02:55:38.685Z,0.40
2018-11-26T02:58:08.779Z,0.40
2018-11-26T03:00:38.090Z,0.40
2018-11-26T03:03:07.101Z,0.40
2018-11-26T03:05:36.036Z,0.40
2018-11-26T03:09:34.121Z,0.50
2018-11-26T03:12:03.640Z,0.60
2018-11-26T03:14:32.538Z,0.60
2018-11-26T03:17:02.155Z,0.60
2018-11-26T03:19:31.442Z,0.60
2018-11-26T03:22:00.689Z,0.70
2018-11-26T03:24:30.054Z,0.70
2018-11-26T03:26:58.851Z,0.80
2018-11-26T03:29:28.550Z,0.90
2018-11-26T03:31:58.191Z,0.90
2018-11-26T03:34:27.363Z,0.90
2018-11-26T03:36:56.661Z,1.00
2018-11-26T03:40:55.887Z,0.90
2018-11-26T03:44:54.514Z,0.90
2018-11-26T03:47:24.963Z,1.00
2018-11-26T03:56:44.293Z,1.00
2018-11-26T03:59:13.522Z,1.10
2018-11-26T04:01:42.833Z,1.10
2018-11-26T04:04:12.798Z,1.10
2018-11-26T04:06:42.236Z,1.10
2018-11-26T04:09:11.448Z,1.10
2018-11-26T04:11:42.155Z,1.00
2018-11-26T04:14:11.033Z,1.00
2018-11-26T04:16:41.126Z,1.00
2018-11-26T04:19:17.829Z,1.00
2018-11-26T04:21:46.952Z,1.00
2018-11-26T04:24:16.468Z,1.10
2018-11-26T04:26:45.513Z,1.00
2018-11-26T04:29:14.312Z,1.00
2018-11-26T04:31:43.323Z,1.00
2018-11-26T04:34:12.374Z,1.00
2018-11-26T04:36:41.606Z,1.00
2018-11-26T04:40:13.290Z,1.00
2018-11-26T04:42:42.045Z,1.10
2018-11-26T04:45:11.531Z,1.10
2018-11-26T04:47:41.104Z,1.10
2018-11-26T04:50:12.168Z,1.10
2018-11-26T04:52:41.145Z,1.10
2018-11-26T04:55:11.061Z,1.10
2018-11-26T04:59:09.210Z,1.10
2018-11-26T05:01:39.163Z,1.10
2018-11-26T05:04:09.113Z,1.10
2018-11-26T05:06:38.081Z,1.10
2018-11-26T05:09:09.253Z,1.20
2018-11-26T05:11:38.312Z,1.20
2018-11-26T05:14:06.994Z,1.20
2018-11-26T05:16:36.340Z,1.20
2018-11-26T05:19:04.994Z,1.20
2018-11-26T05:21:33.865Z,1.10
2018-11-26T05:24:03.162Z,1.20
2018-11-26T05:26:32.301Z,1.20
2018-11-26T05:29:01.183Z,1.20
2018-11-26T05:31:29.985Z,1.20
2018-11-26T05:33:58.796Z,1.20
2018-11-26T05:36:27.769Z,1.20
2018-11-26T05:38:56.675Z,1.20
2018-11-26T05:41:25.494Z,1.20
2018-11-26T05:43:54.614Z,1.20
2018-11-26T05:47:54.002Z,1.20
2018-11-26T05:50:24.577Z,1.20
2018-11-26T05:52:54.683Z,1.20
2018-11-26T05:55:30.103Z,1.10
2018-11-26T05:57:59.807Z,1.10
2018-11-26T06:00:33.620Z,1.10
2018-11-26T06:03:18.897Z,1.00
2018-11-26T06:06:11.471Z,1.00
2018-11-26T06:11:39.504Z,0.90
2018-11-26T06:14:08.380Z,0.90
2018-11-26T06:16:37.538Z,0.80
2018-11-26T06:19:06.766Z,0.80
2018-11-26T06:21:35.825Z,0.80
2018-11-26T06:24:04.812Z,0.80
2018-11-26T06:26:34.109Z,0.70
2018-11-26T06:29:02.741Z,0.70
2018-11-26T06:31:31.463Z,0.70
2018-11-26T06:34:02.617Z,0.70
2018-11-26T06:36:31.371Z,0.70
2018-11-26T06:38:59.991Z,0.70
2018-11-26T06:41:28.872Z,0.70
2018-11-26T06:45:26.919Z,0.70
2018-11-26T06:47:56.639Z,0.70
2018-11-26T06:50:25.155Z,0.70
2018-11-26T06:54:23.739Z,0.70
2018-11-26T06:56:52.537Z,0.70
2018-11-26T06:59:21.123Z,0.70
2018-11-26T07:01:49.757Z,0.70
2018-11-26T07:04:18.840Z,0.70
2018-11-26T07:06:47.367Z,0.70
2018-11-26T07:09:15.993Z,0.60
2018-11-26T07:11:44.710Z,0.50
2018-11-26T07:14:14.277Z,0.40
2018-11-26T07:16:43.915Z,0.40
2018-11-26T07:19:12.598Z,0.40
2018-11-26T07:21:41.247Z,0.40
2018-11-26T07:25:39.735Z,0.30
2018-11-26T07:29:38.401Z,0.30
2018-11-26T07:32:08.149Z,0.20
2018-11-26T07:34:38.641Z,0.20
2018-11-26T07:37:11.720Z,0.10
2018-11-26T07:39:41.631Z,0.00
2018-11-26T07:42:10.540Z,-0.10
2018-11-26T07:44:40.859Z,-0.10
2018-11-26T07:47:09.694Z,-0.20
2018-11-26T07:49:38.234Z,-0.20
2018-11-26T07:52:07.302Z,-0.20
2018-11-26T07:54:36.254Z,-0.10
2018-11-26T08:09:59.797Z,-0.10
2018-11-26T08:12:28.544Z,0.00
2018-11-26T08:14:57.317Z,0.50
2018-11-26T08:17:26.933Z,0.50
2018-11-26T08:19:55.613Z,0.60
2018-11-26T08:22:24.425Z,0.70
2018-11-26T08:24:53.368Z,0.60
2018-11-26T08:27:22.323Z,0.60
2018-11-26T08:29:51.265Z,0.50
2018-11-26T08:32:25.413Z,0.50
2018-11-26T08:34:56.777Z,0.50
2018-11-26T08:37:31.705Z,0.40
2018-11-26T08:40:06.652Z,0.30
2018-11-26T08:45:29.916Z,0.20
2018-11-26T08:48:01.384Z,0.20
2018-11-26T08:50:30.445Z,0.20
2018-11-26T08:52:59.639Z,0.40
2018-11-26T08:56:58.580Z,0.40
2018-11-26T08:59:27.424Z,0.40
2018-11-26T09:02:02.062Z,0.60
2018-11-26T09:04:31.890Z,0.60
2018-11-26T09:07:01.036Z,0.60
2018-11-26T09:09:32.963Z,0.60
2018-11-26T09:11:58.985Z,0.60
2018-11-26T09:14:31.169Z,0.70
2018-11-26T09:17:00.365Z,0.80
2018-11-26T09:19:30.438Z,1.10
2018-11-26T09:21:59.885Z,1.20
2018-11-26T09:24:28.735Z,1.40
2018-11-26T09:28:26.559Z,1.50
2018-11-26T09:30:55.673Z,1.60
2018-11-26T09:33:24.609Z,1.70
2018-11-26T09:35:54.021Z,1.70
2018-11-26T09:38:23.075Z,1.70
2018-11-26T09:40:51.848Z,1.80
2018-11-26T09:43:20.836Z,1.80
2018-11-26T09:45:49.730Z,1.80
2018-11-26T09:48:18.306Z,1.70
2018-11-26T09:50:47.474Z,1.70
2018-11-26T09:53:16.368Z,1.70
2018-11-26T09:56:49.199Z,1.70
2018-11-26T09:59:18.453Z,1.70
2018-11-26T10:01:47.330Z,1.70
2018-11-26T10:04:16.489Z,1.70
2018-11-26T10:06:45.215Z,1.70
2018-11-26T10:09:14.887Z,1.80
2018-11-26T10:11:44.341Z,1.80
2018-11-26T10:14:13.117Z,1.70
2018-11-26T10:16:42.951Z,1.70
2018-11-26T10:19:12.052Z,1.70
2018-11-26T10:23:09.926Z,1.70
2018-11-26T10:25:38.953Z,1.70
2018-11-26T10:29:37.133Z,1.70
2018-11-26T10:32:06.454Z,1.70
2018-11-26T10:34:35.217Z,1.70
2018-11-26T10:37:07.853Z,1.70
2018-11-26T10:41:05.627Z,1.70
2018-11-26T10:43:34.444Z,1.70
2018-11-26T10:46:03.393Z,1.70
2018-11-26T10:48:32.334Z,1.70
2018-11-26T10:51:01.545Z,1.70
2018-11-26T10:53:30.347Z,1.70
2018-11-26T10:55:59.593Z,1.60
2018-11-26T10:58:35.091Z,1.50
2018-11-26T11:01:08.070Z,1.40
2018-11-26T11:03:37.050Z,1.30
2018-11-26T11:06:06.213Z,1.20
2018-11-26T11:08:35.299Z,1.10
2018-11-26T11:11:04.267Z,1.00
2018-11-26T11:13:33.256Z,0.90
2018-11-26T11:16:01.850Z,0.90
2018-11-26T11:18:31.124Z,0.80
2018-11-26T11:20:59.957Z,0.80
2018-11-26T11:23:28.912Z,0.80
2018-11-26T11:25:57.889Z,0.70
2018-11-26T11:28:27.133Z,0.70
2018-11-26T11:30:56.355Z,0.80
2018-11-26T11:35:54.590Z,0.90
2018-11-26T11:38:23.305Z,0.90
2018-11-26T11:40:53.345Z,0.90
2018-11-26T11:43:22.476Z,0.90
2018-11-26T11:45:51.696Z,1.00
2018-11-26T11:48:21.134Z,1.00
2018-11-26T11:50:49.754Z,1.10
2018-11-26T11:53:18.546Z,1.10
2018-11-26T11:55:48.170Z,1.10
2018-11-26T11:58:17.401Z,1.10
2018-11-26T12:00:52.819Z,1.20
2018-11-26T12:03:21.708Z,1.20
2018-11-26T12:05:50.634Z,1.20
2018-11-26T12:08:19.831Z,1.20
2018-11-26T12:10:48.816Z,1.30
2018-11-26T12:13:17.707Z,1.30
2018-11-26T12:15:48.328Z,1.20
2018-11-26T12:19:46.635Z,1.20
2018-11-26T12:22:16.408Z,1.20
2018-11-26T12:24:45.526Z,1.50
2018-11-26T12:33:58.173Z,2.10
2018-11-26T12:36:26.837Z,2.60
2018-11-26T12:38:55.493Z,2.30
2018-11-26T12:41:25.108Z,2.10
2018-11-26T12:43:54.886Z,1.90
2018-11-26T12:46:24.190Z,1.70
2018-11-26T12:48:53.199Z,1.60
2018-11-26T12:51:22.158Z,1.50
2018-11-26T12:53:51.185Z,1.50
2018-11-26T12:56:20.674Z,1.50
2018-11-26T12:58:49.603Z,1.40
2018-11-26T13:01:18.373Z,1.40
2018-11-26T13:03:47.276Z,1.30
2018-11-26T13:06:16.728Z,1.30
2018-11-26T13:08:45.524Z,1.20
2018-11-26T13:11:14.850Z,1.10
2018-11-26T13:13:43.787Z,1.10
2018-11-26T13:16:12.668Z,1.00
2018-11-26T13:18:41.539Z,0.90
2018-11-26T13:21:10.368Z,0.90
2018-11-26T13:23:39.378Z,0.90
2018-11-26T13:26:08.977Z,0.80
2018-11-26T13:28:37.708Z,0.80
2018-11-26T13:31:06.470Z,0.80
2018-11-26T13:33:36.350Z,0.70
2018-11-26T13:36:05.362Z,0.70
2018-11-26T13:38:34.124Z,0.70
2018-11-26T13:41:02.968Z,0.60
2018-11-26T13:43:31.890Z,0.50
2018-11-26T13:46:01.841Z,0.40
2018-11-26T13:48:31.060Z,0.50
2018-11-26T13:51:00.167Z,0.40
2018-11-26T13:53:29.060Z,0.40
2018-11-26T13:55:58.031Z,0.30
2018-11-26T13:58:26.937Z,0.20
2018-11-26T14:00:55.699Z,0.10
2018-11-26T14:03:24.740Z,0.10
2018-11-26T14:05:53.967Z,0.10
2018-11-26T14:08:23.857Z,0.10
2018-11-26T14:10:52.672Z,0.00
2018-11-26T14:13:21.781Z,0.00
2018-11-26T14:17:20.388Z,0.00
2018-11-26T14:19:49.240Z,0.00
2018-11-26T14:22:18.104Z,-0.10
2018-11-26T14:24:47.480Z,-0.10
2018-11-26T14:27:16.353Z,-0.10
2018-11-26T14:31:18.130Z,-0.20
2018-11-26T14:33:47.219Z,-0.30
2018-11-26T14:36:16.298Z,-0.20
2018-11-26T14:38:45.626Z,-0.30
2018-11-26T14:41:14.435Z,-0.30
2018-11-26T14:43:43.445Z,-0.30
2018-11-26T14:46:12.733Z,-0.30
2018-11-26T14:48:41.428Z,-0.30
2018-11-26T14:51:10.587Z,-0.30
2018-11-26T14:53:39.681Z,-0.30
2018-11-26T14:56:08.424Z,-0.30
2018-11-26T14:58:37.165Z,-0.30
2018-11-26T15:01:06.971Z,-0.30
2018-11-26T15:03:36.214Z,-0.40
2018-11-26T15:21:57.324Z,-0.40
2018-11-26T15:24:26.054Z,-0.50
2018-11-26T15:26:54.973Z,-0.60
2018-11-26T15:29:23.867Z,-0.60
2018-11-26T15:31:52.867Z,-0.70
2018-11-26T15:34:21.790Z,-0.60
2018-11-26T15:36:51.089Z,-0.50
2018-11-26T15:39:20.222Z,-0.50
2018-11-26T15:41:50.378Z,-0.60
2018-11-26T15:45:48.778Z,-0.60
2018-11-26T15:48:17.561Z,-0.50
2018-11-26T15:50:47.763Z,-0.50
2018-11-26T15:53:17.695Z,-0.40
2018-11-26T15:55:46.339Z,-0.50
2018-11-26T15:59:44.470Z,-0.50
2018-11-26T16:02:17.155Z,-0.40
2018-11-26T16:04:45.819Z,-0.40
2018-11-26T16:07:14.458Z,-0.40
2018-11-26T16:09:43.222Z,-0.40
2018-11-26T16:12:12.126Z,-0.40
2018-11-26T16:14:40.940Z,-0.40
2018-11-26T16:17:09.554Z,-0.40
2018-11-26T16:19:38.714Z,-0.50
2018-11-26T16:22:07.427Z,-0.50
2018-11-26T16:24:36.154Z,-0.50
2018-11-26T16:33:48.616Z,-0.60
2018-11-26T16:36:17.187Z,-0.70
2018-11-26T16:38:45.756Z,-0.80
2018-11-26T16:41:14.486Z,-0.80
2018-11-26T16:43:43.148Z,-0.80
2018-11-26T16:46:13.375Z,-0.90
2018-11-26T16:48:42.617Z,-0.90
2018-11-26T16:51:11.210Z,-0.90
2018-11-26T16:53:39.839Z,-1.00
2018-11-26T16:56:08.900Z,-1.00
2018-11-26T16:58:37.514Z,-1.00
2018-11-26T17:01:06.306Z,-1.00
2018-11-26T17:03:35.035Z,-1.00
2018-11-26T17:06:03.664Z,-1.10
2018-11-26T17:08:32.410Z,-1.10
2018-11-26T17:12:30.443Z,-1.10
2018-11-26T17:14:59.044Z,-1.10
2018-11-26T17:18:57.409Z,-1.20
2018-11-26T17:21:26.057Z,-1.20
2018-11-26T17:23:54.666Z,-1.30
2018-11-26T17:26:23.526Z,-1.30
2018-11-26T17:28:56.963Z,-1.30
2018-11-26T17:31:26.082Z,-1.30
2018-11-26T17:33:54.749Z,-1.30
2018-11-26T17:36:23.343Z,-1.40
2018-11-26T17:40:21.526Z,-1.40
2018-11-26T17:42:50.580Z,-1.40
2018-11-26T17:45:19.963Z,-1.50
2018-11-26T17:47:50.814Z,-1.60
2018-11-26T17:50:21.547Z,-1.60
2018-11-26T17:52:50.160Z,-1.70
2018-11-26T17:55:18.960Z,-1.70
2018-11-26T17:57:47.635Z,-1.80
2018-11-26T18:00:23.466Z,-1.80
2018-11-26T18:02:52.203Z,-1.90
2018-11-26T18:05:22.577Z,-1.90
2018-11-26T18:07:56.105Z,-1.90
2018-11-26T18:10:37.536Z,-2.00
2018-11-26T18:14:35.879Z,-2.00
2018-11-26T18:17:04.555Z,-2.10
2018-11-26T18:19:33.270Z,-2.20
2018-11-26T18:22:02.391Z,-2.30
2018-11-26T18:24:43.724Z,-2.30
2018-11-26T18:27:18.514Z,-2.40
2018-11-26T18:29:47.146Z,-2.40
2018-11-26T18:32:16.021Z,-2.30
2018-11-26T18:34:44.867Z,-2.20
2018-11-26T18:38:40.693Z,-2.20
2018-11-26T18:41:09.320Z,-2.20
2018-11-26T18:43:37.965Z,-2.30
2018-11-26T18:46:06.668Z,-2.30
2018-11-26T18:48:35.784Z,-2.30
2018-11-26T18:51:04.393Z,-2.30
2018-11-26T18:53:33.228Z,-2.30
2018-11-26T18:56:01.911Z,-2.30
2018-11-26T18:58:30.510Z,-2.20
2018-11-26T19:01:00.486Z,-2.20
2018-11-26T19:03:29.392Z,-2.10
2018-11-26T19:05:58.102Z,-2.20
2018-11-26T19:08:26.748Z,-2.20
2018-11-26T19:12:26.674Z,-2.20
2018-11-26T19:14:55.302Z,-2.20
2018-11-26T19:17:23.915Z,-2.30
2018-11-26T19:19:52.658Z,-2.40
2018-11-26T19:22:22.716Z,-2.50
2018-11-26T19:24:51.396Z,-2.60
2018-11-26T19:27:20.212Z,-2.70
2018-11-26T19:31:18.076Z,-2.80
2018-11-26T19:33:46.900Z,-2.90
2018-11-26T19:36:15.470Z,-3.10
2018-11-26T19:38:44.114Z,-3.20
2018-11-26T19:41:12.768Z,-3.30
2018-11-26T19:43:42.374Z,-3.30
2018-11-26T19:46:10.988Z,-3.30
2018-11-26T19:48:39.634Z,-3.40
2018-11-26T19:51:08.419Z,-3.40
2018-11-26T19:55:08.455Z,-3.40
2018-11-26T19:57:38.152Z,-3.50
2018-11-26T20:00:11.610Z,-3.50
2018-11-26T20:02:40.098Z,-3.50
2018-11-26T20:05:12.810Z,-3.50
2018-11-26T20:07:41.392Z,-3.50
2018-11-26T20:10:10.129Z,-3.40
2018-11-26T20:12:38.916Z,-3.50
2018-11-26T20:15:11.551Z,-3.50
2018-11-26T20:17:40.563Z,-3.50
2018-11-26T20:20:09.458Z,-3.50
2018-11-26T20:22:38.002Z,-3.50
2018-11-26T20:25:10.242Z,-3.30
2018-11-26T20:27:38.745Z,-3.10
2018-11-26T20:30:10.118Z,-3.00
2018-11-26T20:32:39.306Z,-2.90
2018-11-26T20:35:09.370Z,-2.80
2018-11-26T20:37:37.919Z,-2.70
2018-11-26T20:40:13.362Z,-2.60
2018-11-26T20:42:48.642Z,-2.60
2018-11-26T20:45:17.886Z,-2.60
2018-11-26T20:47:47.230Z,-2.70
2018-11-26T20:50:19.200Z,-2.70
2018-11-26T20:52:47.742Z,-2.60
2018-11-26T20:55:18.328Z,-2.60
2018-11-26T20:57:47.514Z,-2.50
2018-11-26T21:00:17.529Z,-2.50
2018-11-26T21:02:47.427Z,-2.50
2018-11-26T21:05:16.086Z,-2.40
2018-11-26T21:07:44.673Z,-2.40
2018-11-26T21:10:14.921Z,-2.20
2018-11-26T21:12:43.946Z,-2.20
2018-11-26T21:15:16.673Z,-2.20
2018-11-26T21:17:49.594Z,-2.20
2018-11-26T21:20:31.347Z,-2.20
2018-11-26T21:23:00.114Z,-2.20
2018-11-26T21:25:28.813Z,-2.30
2018-11-26T21:27:57.494Z,-2.30
2018-11-26T21:30:26.520Z,-2.40
2018-11-26T21:32:55.147Z,-2.30
2018-11-26T21:35:23.662Z,-2.30
2018-11-26T21:37:53.053Z,-2.30
2018-11-26T21:40:23.736Z,-2.30
2018-11-26T21:42:52.831Z,-2.30
2018-11-26T21:45:30.485Z,-2.20
2018-11-26T21:47:59.113Z,-2.30
2018-11-26T21:50:27.635Z,-2.30
2018-11-26T21:52:56.138Z,-2.30
2018-11-26T21:55:24.645Z,-2.30
2018-11-26T21:57:53.118Z,-2.20
2018-11-26T22:00:28.208Z,-2.20
2018-11-26T22:02:57.197Z,-2.30
2018-11-26T22:05:25.844Z,-2.30
2018-11-26T22:07:54.377Z,-2.40
2018-11-26T22:10:29.006Z,-2.30
2018-11-26T22:12:57.860Z,-2.30
2018-11-26T22:15:26.495Z,-2.30
2018-11-26T22:17:55.686Z,-2.20
2018-11-26T22:20:25.521Z,-2.30
2018-11-26T22:22:54.463Z,-2.30
2018-11-26T22:25:22.856Z,-2.30
2018-11-26T22:27:51.826Z,-2.40
2018-11-26T22:30:26.138Z,-2.40
2018-11-26T22:32:54.708Z,-2.40
2018-11-26T22:35:23.243Z,-2.40
2018-11-26T22:37:51.854Z,-2.40
2018-11-26T22:40:21.858Z,-2.50
2018-11-26T22:42:50.357Z,-2.50
2018-11-26T22:45:24.187Z,-2.50
2018-11-26T22:47:59.839Z,-2.50
2018-11-26T22:50:29.278Z,-2.50
2018-11-26T22:52:57.770Z,-2.50
2018-11-26T22:55:26.253Z,-2.50
2018-11-26T22:57:54.977Z,-2.50
2018-11-26T23:00:29.770Z,-2.50
2018-11-26T23:03:01.602Z,-2.50
2018-11-26T23:05:30.165Z,-2.50
2018-11-26T23:07:58.738Z,-2.50
2018-11-26T23:10:27.579Z,-2.60
2018-11-26T23:12:56.219Z,-2.60
2018-11-26T23:15:24.753Z,-2.60
2018-11-26T23:17:53.300Z,-2.60
2018-11-26T23:20:21.793Z,-2.60
2018-11-26T23:22:50.280Z,-2.60
2018-11-26T23:25:19.950Z,-2.60
2018-11-26T23:27:48.554Z,-2.70
2018-11-26T23:30:20.975Z,-2.70
2018-11-26T23:32:52.369Z,-2.70
2018-11-26T23:35:21.039Z,-2.70
2018-11-26T23:37:50.029Z,-2.70
2018-11-26T23:40:18.514Z,-2.80
2018-11-26T23:42:47.009Z,-2.90
2018-11-26T23:45:20.808Z,-2.90
2018-11-26T23:47:49.325Z,-2.90
2018-11-26T23:50:18.086Z,-3.00
2018-11-26T23:52:47.190Z,-3.00
2018-11-26T23:55:16.769Z,-3.00
2018-11-26T23:57:45.355Z,-3.10
